Time;durP1;ratioP1;P1;durP2;ratioP2;P2;SDS_P1;SDS_P2;PMS_P1;PMS_P2;Temp;Humidity;BMP_temperature;BMP_pressure;BME280_temperature;BME280_humidity;BME280_pressure;Samples;Min_cycle;Max_cycle;Signal;HPM_P1;HPM_P2
2022/10/18 00:01:00;;;;;;;9.07;6.00;;;11.00;61.90;;;;;;5080960;28;20036;-59
2022/10/18 00:03:26;;;;;;;8.18;5.85;;;11.00;61.90;;;;;;5071087;28;20034;-61
2022/10/18 00:05:52;;;;;;;7.45;5.63;;;11.00;61.80;;;;;;5079561;28;20116;-59
2022/10/18 00:08:19;;;;;;;7.93;5.80;;;11.00;61.80;;;;;;5073012;28;20513;-59
2022/10/18 00:10:44;;;;;;;8.10;5.68;;;11.00;61.80;;;;;;5076153;28;20062;-59
2022/10/18 00:13:11;;;;;;;8.85;5.68;;;11.00;61.80;;;;;;5083767;28;20063;-59
2022/10/18 00:15:36;;;;;;;7.88;5.32;;;11.00;61.70;;;;;;5083697;28;20573;-60
2022/10/18 00:18:02;;;;;;;7.78;5.05;;;11.00;61.60;;;;;;5075545;28;20028;-59
2022/10/18 00:20:28;;;;;;;8.38;5.75;;;11.00;61.80;;;;;;5076081;28;20028;-60
2022/10/18 00:22:53;;;;;;;6.72;4.80;;;11.00;61.70;;;;;;5081496;28;20491;-60
2022/10/18 00:25:19;;;;;;;6.88;5.10;;;11.00;61.60;;;;;;5078004;28;20028;-59
2022/10/18 00:27:45;;;;;;;7.93;5.57;;;11.00;61.70;;;;;;5072554;28;20070;-59
2022/10/18 00:30:10;;;;;;;8.88;5.70;;;11.00;61.80;;;;;;5079254;28;20032;-59
2022/10/18 00:32:37;;;;;;;8.02;5.35;;;11.00;61.70;;;;;;5080397;28;20028;-59
2022/10/18 00:35:04;;;;;;;6.75;4.75;;;11.00;61.70;;;;;;5076854;28;20064;-59
2022/10/18 00:37:31;;;;;;;7.82;5.38;;;11.00;61.80;;;;;;5072511;28;20051;-59
2022/10/18 00:39:56;;;;;;;8.20;5.13;;;11.00;61.90;;;;;;5074409;28;20131;-59
2022/10/18 00:42:26;;;;;;;7.95;5.10;;;11.00;61.80;;;;;;5072269;28;20123;-59
2022/10/18 00:45:04;;;;;;;7.72;5.22;;;11.00;61.70;;;;;;5070943;28;20085;-60
2022/10/18 00:47:30;;;;;;;7.40;5.05;;;11.00;61.70;;;;;;5073243;28;20383;-60
2022/10/18 00:49:59;;;;;;;9.07;5.15;;;11.00;61.70;;;;;;5081811;28;20048;-59
2022/10/18 00:52:35;;;;;;;7.78;5.70;;;11.00;61.70;;;;;;5068841;28;20475;-59
2022/10/18 00:55:02;;;;;;;7.25;5.22;;;11.00;61.60;;;;;;5072376;28;20081;-59
2022/10/18 00:57:28;;;;;;;6.47;4.88;;;11.00;61.60;;;;;;5068428;28;20033;-59
2022/10/18 00:59:54;;;;;;;8.45;5.90;;;11.00;61.60;;;;;;5072197;28;20064;-59
2022/10/18 01:02:20;;;;;;;9.57;5.60;;;11.00;61.40;;;;;;5080913;28;20024;-60
2022/10/18 01:04:47;;;;;;;7.40;5.78;;;11.00;61.30;;;;;;5080997;28;20065;-59
2022/10/18 01:07:15;;;;;;;9.13;6.43;;;11.00;61.30;;;;;;5092292;28;20104;-59
2022/10/18 01:10:04;;;;;;;9.50;6.80;;;11.00;61.20;;;;;;5069934;28;20025;-59
2022/10/18 01:12:39;;;;;;;8.63;6.07;;;11.00;61.10;;;;;;5073331;28;20017;-60
2022/10/18 01:15:10;;;;;;;9.57;6.63;;;11.00;61.10;;;;;;5077076;28;20021;-59
2022/10/18 01:17:48;;;;;;;8.07;5.68;;;10.90;61.00;;;;;;5074957;28;20100;-59
2022/10/18 01:20:41;;;;;;;10.68;6.72;;;10.90;61.00;;;;;;5073270;28;20033;-59
2022/10/18 01:23:19;;;;;;;9.43;6.50;;;10.90;61.00;;;;;;5073451;28;20055;-59
2022/10/18 01:26:29;;;;;;;9.38;6.25;;;10.80;61.00;;;;;;5070038;28;20040;-59
2022/10/18 01:28:57;;;;;;;8.38;5.85;;;10.80;60.90;;;;;;5080159;28;20150;-59
2022/10/18 01:31:31;;;;;;;9.55;6.05;;;10.80;61.00;;;;;;5087055;28;20035;-59
2022/10/18 01:34:01;;;;;;;9.48;6.25;;;10.70;61.00;;;;;;5077945;28;20025;-60
2022/10/18 01:36:36;;;;;;;7.95;5.95;;;10.70;61.10;;;;;;5070274;28;20056;-60
2022/10/18 01:39:07;;;;;;;8.35;5.80;;;10.70;61.10;;;;;;5079673;28;20471;-59
2022/10/18 01:41:35;;;;;;;7.50;5.45;;;10.70;61.10;;;;;;5076221;28;20136;-59
2022/10/18 01:44:03;;;;;;;8.73;6.25;;;10.60;61.10;;;;;;5069553;28;20056;-59
2022/10/18 01:46:29;;;;;;;8.05;5.90;;;10.70;61.10;;;;;;5078701;28;20543;-59
2022/10/18 01:48:56;;;;;;;7.63;5.30;;;10.60;61.00;;;;;;5084148;28;20070;-59
2022/10/18 01:51:32;;;;;;;7.53;5.88;;;10.60;61.00;;;;;;5083216;28;20032;-59
2022/10/18 01:53:58;;;;;;;8.30;5.93;;;10.60;61.00;;;;;;5074097;28;20028;-60
2022/10/18 01:56:39;;;;;;;7.90;6.15;;;10.60;61.00;;;;;;5076531;28;20110;-59
2022/10/18 01:59:33;;;;;;;10.00;6.30;;;10.60;61.00;;;;;;5082374;28;20395;-59
2022/10/18 02:02:19;;;;;;;7.80;5.60;;;10.60;61.00;;;;;;5076646;28;20330;-60
2022/10/18 02:04:57;;;;;;;8.20;6.13;;;10.60;61.00;;;;;;5067389;28;20018;-59
2022/10/18 02:07:38;;;;;;;9.15;6.32;;;10.50;60.90;;;;;;5082531;28;20019;-59
2022/10/18 02:10:22;;;;;;;8.05;5.75;;;10.50;60.90;;;;;;5081201;28;20021;-59
2022/10/18 02:12:49;;;;;;;9.18;5.97;;;10.50;60.80;;;;;;5066324;28;20021;-59
2022/10/18 02:15:19;;;;;;;9.15;6.22;;;10.50;60.90;;;;;;5075078;28;20048;-59
2022/10/18 02:17:47;;;;;;;8.00;5.88;;;10.50;61.00;;;;;;5071436;28;20041;-60
2022/10/18 02:20:16;;;;;;;9.32;6.10;;;10.50;61.00;;;;;;5078333;28;20031;-59
2022/10/18 02:22:44;;;;;;;8.43;5.70;;;10.40;60.90;;;;;;5079993;28;20043;-60
2022/10/18 02:25:16;;;;;;;7.88;5.43;;;10.50;61.00;;;;;;5091125;28;20027;-59
2022/10/18 02:27:42;;;;;;;7.75;5.40;;;10.40;60.90;;;;;;5080478;28;20017;-59
2022/10/18 02:30:09;;;;;;;7.57;5.30;;;10.40;60.90;;;;;;5083023;28;20028;-59
2022/10/18 02:32:43;;;;;;;7.32;5.55;;;10.40;61.00;;;;;;5073331;28;20040;-59
2022/10/18 02:35:26;;;;;;;7.57;5.30;;;10.40;61.00;;;;;;5074401;28;20029;-59
2022/10/18 02:37:53;;;;;;;8.15;5.25;;;10.40;61.10;;;;;;5081120;28;20475;-59
2022/10/18 02:40:19;;;;;;;7.13;4.88;;;10.50;61.10;;;;;;5083861;28;20250;-59
2022/10/18 02:42:52;;;;;;;7.70;5.53;;;10.40;61.00;;;;;;5077879;28;20034;-59
2022/10/18 02:45:18;;;;;;;7.15;5.35;;;10.40;61.00;;;;;;5074885;28;20033;-59
2022/10/18 02:47:43;;;;;;;8.93;5.20;;;10.50;61.10;;;;;;5080671;28;20043;-59
2022/10/18 02:50:09;;;;;;;8.90;5.40;;;10.50;61.00;;;;;;5075118;28;20035;-59
2022/10/18 02:52:35;;;;;;;7.43;5.53;;;10.50;61.10;;;;;;5071921;28;20387;-60
2022/10/18 02:55:00;;;;;;;7.78;5.63;;;10.50;61.20;;;;;;5074126;28;20029;-59
2022/10/18 02:57:26;;;;;;;8.00;5.30;;;10.50;61.10;;;;;;5081915;28;20038;-60
2022/10/18 02:59:52;;;;;;;7.93;5.22;;;10.50;61.00;;;;;;5078796;28;20135;-59
2022/10/18 03:02:17;;;;;;;9.70;5.50;;;10.50;61.10;;;;;;5075007;28;20028;-59
2022/10/18 03:04:43;;;;;;;6.97;5.10;;;10.50;61.00;;;;;;5071528;28;20031;-59
2022/10/18 03:07:09;;;;;;;9.93;5.57;;;10.50;61.00;;;;;;5084592;28;20085;-59
2022/10/18 03:09:34;;;;;;;6.82;4.88;;;10.50;60.90;;;;;;5084245;28;20032;-59
2022/10/18 03:12:00;;;;;;;8.57;5.43;;;10.50;61.00;;;;;;5078033;28;20489;-58
2022/10/18 03:14:25;;;;;;;8.20;5.63;;;10.50;60.90;;;;;;5070226;28;20356;-59
2022/10/18 03:16:51;;;;;;;10.70;6.30;;;10.50;60.80;;;;;;5078817;28;20029;-60
2022/10/18 03:19:17;;;;;;;9.13;5.97;;;10.50;60.80;;;;;;5072924;28;20028;-59
2022/10/18 03:21:42;;;;;;;9.20;5.72;;;10.50;60.70;;;;;;5081092;28;20386;-59
2022/10/18 03:24:08;;;;;;;9.00;5.78;;;10.40;60.70;;;;;;5078379;28;20031;-59
2022/10/18 03:26:34;;;;;;;8.18;5.57;;;10.40;60.60;;;;;;5071020;28;20021;-58
2022/10/18 03:28:59;;;;;;;8.27;5.80;;;10.30;60.70;;;;;;5071249;28;20109;-59
2022/10/18 03:31:25;;;;;;;8.27;5.85;;;10.30;60.80;;;;;;5071224;28;20025;-59
2022/10/18 03:33:50;;;;;;;8.55;5.93;;;10.30;60.70;;;;;;5070795;28;20036;-59
2022/10/18 03:36:16;;;;;;;6.93;5.30;;;10.20;60.80;;;;;;5069791;28;20044;-59
2022/10/18 03:38:42;;;;;;;7.50;5.00;;;10.20;60.90;;;;;;5069999;28;20039;-59
2022/10/18 03:41:08;;;;;;;7.28;5.00;;;10.10;61.20;;;;;;5074434;28;20111;-59
2022/10/18 03:43:33;;;;;;;6.85;5.45;;;10.20;61.20;;;;;;5073283;28;20016;-59
2022/10/18 03:46:00;;;;;;;6.57;4.95;;;10.20;61.00;;;;;;5071576;28;20024;-59
2022/10/18 03:48:26;;;;;;;7.22;5.68;;;10.10;61.00;;;;;;5073883;28;20017;-59
2022/10/18 03:50:51;;;;;;;8.02;5.10;;;10.20;61.10;;;;;;5074789;28;20030;-60
2022/10/18 03:53:17;;;;;;;10.30;5.72;;;10.20;61.10;;;;;;5071874;28;20430;-59
2022/10/18 03:55:43;;;;;;;8.45;5.60;;;10.10;61.00;;;;;;5072784;28;20103;-58
2022/10/18 03:58:09;;;;;;;8.60;5.55;;;10.10;61.00;;;;;;5071590;28;20048;-59
2022/10/18 04:00:35;;;;;;;7.65;5.53;;;10.10;61.00;;;;;;5069010;28;20487;-59
2022/10/18 04:03:00;;;;;;;9.38;6.28;;;10.10;61.10;;;;;;5076961;28;20027;-61
2022/10/18 04:05:29;;;;;;;7.68;5.30;;;10.10;61.10;;;;;;5074920;28;20129;-59
2022/10/18 04:07:55;;;;;;;7.97;5.40;;;10.10;61.10;;;;;;5073288;28;20024;-59
2022/10/18 04:10:21;;;;;;;7.00;5.07;;;10.10;61.00;;;;;;5073998;28;20024;-59
2022/10/18 04:12:46;;;;;;;7.68;5.68;;;10.10;61.10;;;;;;5075358;28;20033;-59
2022/10/18 04:15:12;;;;;;;8.30;5.70;;;10.10;61.10;;;;;;5069858;28;20037;-60
2022/10/18 04:17:37;;;;;;;7.25;5.82;;;10.10;61.70;;;;;;5072656;28;20029;-59
2022/10/18 04:20:04;;;;;;;9.40;5.75;;;10.10;61.10;;;;;;5070690;28;20040;-59
2022/10/18 04:22:29;;;;;;;8.05;5.78;;;10.00;61.00;;;;;;5071265;28;20020;-59
2022/10/18 04:24:55;;;;;;;9.77;6.38;;;10.00;61.10;;;;;;5070089;28;20028;-59
2022/10/18 04:27:21;;;;;;;10.23;6.68;;;10.00;61.10;;;;;;5070293;28;20369;-58
2022/10/18 04:29:47;;;;;;;7.45;5.88;;;9.90;61.00;;;;;;5070783;28;20506;-60
2022/10/18 04:32:12;;;;;;;8.75;5.70;;;9.90;61.70;;;;;;5069393;28;20033;-59
2022/10/18 04:34:38;;;;;;;8.25;6.28;;;9.90;61.20;;;;;;5070795;28;20036;-59
2022/10/18 04:37:04;;;;;;;9.02;5.65;;;9.80;61.10;;;;;;5074463;28;20024;-59
2022/10/18 04:39:29;;;;;;;9.18;6.45;;;9.80;61.20;;;;;;5075041;28;20025;-60
2022/10/18 04:41:55;;;;;;;11.13;6.97;;;9.80;61.30;;;;;;5074342;28;20017;-59
2022/10/18 04:44:21;;;;;;;9.48;6.82;;;9.80;61.50;;;;;;5072387;28;20043;-58
2022/10/18 04:46:46;;;;;;;8.75;5.95;;;9.80;61.50;;;;;;5073067;28;20017;-59
2022/10/18 04:49:12;;;;;;;9.00;6.25;;;9.80;61.50;;;;;;5074322;28;20039;-59
2022/10/18 04:51:38;;;;;;;10.13;6.60;;;9.80;61.50;;;;;;5072283;28;20111;-59
2022/10/18 04:54:03;;;;;;;8.05;5.97;;;9.90;61.50;;;;;;5072954;28;20537;-60
2022/10/18 04:56:29;;;;;;;8.85;6.18;;;9.90;61.50;;;;;;5074980;28;20453;-58
2022/10/18 04:58:54;;;;;;;6.63;5.55;;;9.90;61.60;;;;;;5069187;28;20507;-60
2022/10/18 05:01:20;;;;;;;7.43;5.40;;;9.90;61.60;;;;;;5070995;28;20064;-59
2022/10/18 05:03:54;;;;;;;8.18;5.70;;;10.00;61.50;;;;;;5074521;28;20021;-59
2022/10/18 05:06:20;;;;;;;7.72;5.72;;;10.00;61.60;;;;;;5074070;28;20055;-59
2022/10/18 05:08:46;;;;;;;7.38;5.47;;;10.00;61.60;;;;;;5074151;28;20361;-59
2022/10/18 05:11:11;;;;;;;9.07;6.43;;;10.00;61.60;;;;;;5070455;28;20045;-59
2022/10/18 05:13:37;;;;;;;10.70;6.35;;;10.10;61.60;;;;;;5070645;28;20043;-60
2022/10/18 05:16:03;;;;;;;9.63;6.38;;;10.10;61.60;;;;;;5075447;28;20028;-60
2022/10/18 05:18:29;;;;;;;8.23;5.82;;;10.10;61.50;;;;;;5071812;28;20113;-60
2022/10/18 05:20:55;;;;;;;8.00;6.22;;;10.10;61.40;;;;;;5071572;28;20413;-59
2022/10/18 05:23:21;;;;;;;10.65;7.45;;;10.20;61.50;;;;;;5072633;28;20016;-59
2022/10/18 05:25:47;;;;;;;8.68;6.32;;;10.20;61.50;;;;;;5064724;28;20543;-59
2022/10/18 05:28:13;;;;;;;7.25;6.00;;;10.20;61.60;;;;;;5073820;28;20036;-59
2022/10/18 05:30:39;;;;;;;9.35;6.60;;;10.20;61.60;;;;;;5078017;28;20020;-59
2022/10/18 05:33:06;;;;;;;9.70;6.38;;;10.20;61.60;;;;;;5071884;28;20383;-58
2022/10/18 05:35:32;;;;;;;9.27;6.25;;;10.30;61.70;;;;;;5074854;28;20020;-59
2022/10/18 05:37:57;;;;;;;8.57;6.43;;;10.30;61.60;;;;;;5068498;28;20395;-59
2022/10/18 05:40:23;;;;;;;9.98;6.40;;;10.30;61.70;;;;;;5068990;28;20032;-58
2022/10/18 05:42:51;;;;;;;9.18;6.28;;;10.40;61.60;;;;;;5070042;28;20044;-60
2022/10/18 05:45:17;;;;;;;8.38;5.93;;;10.40;61.70;;;;;;5068633;28;20609;-61
2022/10/18 05:47:43;;;;;;;8.05;6.70;;;10.50;61.60;;;;;;5067587;28;20165;-59
2022/10/18 05:50:08;;;;;;;7.15;5.85;;;10.50;61.70;;;;;;5061696;28;20028;-59
2022/10/18 05:52:34;;;;;;;8.85;5.75;;;10.60;61.60;;;;;;5062623;28;20060;-59
2022/10/18 05:55:00;;;;;;;9.40;5.97;;;10.60;61.70;;;;;;5061916;28;20527;-60
2022/10/18 05:57:25;;;;;;;9.35;6.07;;;10.70;61.70;;;;;;5064230;28;20590;-60
2022/10/18 05:59:51;;;;;;;8.13;5.72;;;10.80;61.70;;;;;;5068621;28;20048;-59
2022/10/18 06:02:17;;;;;;;8.63;5.82;;;10.90;61.60;;;;;;5061390;28;20035;-61
2022/10/18 06:04:42;;;;;;;6.78;5.38;;;10.90;61.50;;;;;;5060072;28;20033;-60
2022/10/18 06:07:10;;;;;;;7.90;5.80;;;11.00;61.50;;;;;;5065570;28;20036;-60
2022/10/18 06:09:36;;;;;;;7.15;5.47;;;11.10;61.40;;;;;;5068218;28;20035;-59
2022/10/18 06:12:02;;;;;;;8.90;6.43;;;11.10;61.50;;;;;;5068886;28;20040;-60
2022/10/18 06:14:28;;;;;;;9.20;6.38;;;11.20;61.40;;;;;;5066253;28;20472;-59
2022/10/18 06:16:55;;;;;;;7.65;5.53;;;11.30;61.40;;;;;;5067062;28;20684;-59
2022/10/18 06:19:22;;;;;;;7.43;5.85;;;11.40;61.40;;;;;;5059813;28;20029;-59
2022/10/18 06:21:47;;;;;;;8.18;5.95;;;11.50;61.30;;;;;;5064270;28;20028;-60
2022/10/18 06:24:13;;;;;;;9.75;5.32;;;11.50;61.20;;;;;;5069796;28;20085;-61
2022/10/18 06:26:39;;;;;;;7.93;5.45;;;11.60;61.20;;;;;;5062436;28;20031;-62
2022/10/18 06:29:04;;;;;;;7.88;5.90;;;11.70;61.30;;;;;;5066304;28;20488;-59
2022/10/18 06:31:30;;;;;;;6.07;4.50;;;11.80;61.30;;;;;;5068822;28;20078;-59
2022/10/18 06:33:59;;;;;;;6.22;4.55;;;11.90;61.30;;;;;;5062317;28;20056;-61
2022/10/18 06:36:26;;;;;;;5.60;3.92;;;12.00;61.40;;;;;;5062683;28;20036;-61
2022/10/18 06:38:52;;;;;;;4.85;3.78;;;12.10;61.20;;;;;;5063635;28;20024;-59
2022/10/18 06:41:18;;;;;;;6.57;4.70;;;12.20;61.20;;;;;;5059201;28;20033;-61
2022/10/18 06:43:52;;;;;;;5.15;3.88;;;12.30;61.20;;;;;;5074742;28;20074;-60
2022/10/18 06:46:18;;;;;;;5.25;3.88;;;12.30;61.10;;;;;;5065288;28;20266;-60
2022/10/18 06:48:44;;;;;;;4.95;3.88;;;12.40;61.10;;;;;;5067364;28;20021;-60
2022/10/18 06:51:10;;;;;;;6.72;4.47;;;12.50;61.10;;;;;;5070175;28;20031;-61
2022/10/18 06:53:38;;;;;;;4.70;3.97;;;12.60;61.10;;;;;;5062253;28;20043;-59
2022/10/18 06:56:12;;;;;;;6.68;4.30;;;12.70;61.30;;;;;;5063807;28;20473;-62
2022/10/18 06:58:38;;;;;;;5.57;4.40;;;12.70;61.20;;;;;;5067701;28;20045;-59
2022/10/18 07:01:09;;;;;;;6.22;4.70;;;12.70;61.10;;;;;;5052304;28;20082;-59
2022/10/18 07:03:35;;;;;;;5.78;4.38;;;12.80;61.10;;;;;;5053166;28;20538;-60
2022/10/18 07:06:05;;;;;;;6.60;4.40;;;12.90;61.10;;;;;;5049906;28;20033;-60
2022/10/18 07:08:32;;;;;;;5.10;3.30;;;12.90;61.20;;;;;;5065017;28;20307;-60
2022/10/18 07:10:57;;;;;;;4.00;3.60;;;13.00;61.10;;;;;;5049139;28;20498;-60
2022/10/18 07:13:24;;;;;;;5.43;3.70;;;13.00;61.10;;;;;;5060259;28;20028;-60
2022/10/18 07:16:00;;;;;;;5.50;4.38;;;13.10;61.00;;;;;;5041694;28;20039;-60
2022/10/18 07:18:25;;;;;;;4.97;3.80;;;13.10;61.00;;;;;;5055923;28;20032;-61
2022/10/18 07:20:51;;;;;;;5.88;4.25;;;13.20;61.00;;;;;;5051995;28;20062;-59
2022/10/18 07:23:17;;;;;;;6.60;4.28;;;13.20;61.00;;;;;;5056750;28;20090;-60
2022/10/18 07:25:43;;;;;;;5.93;4.65;;;13.30;61.00;;;;;;5060171;28;20025;-60
2022/10/18 07:28:09;;;;;;;5.63;4.38;;;13.30;61.00;;;;;;5058237;28;20025;-60
2022/10/18 07:30:34;;;;;;;5.55;4.22;;;13.40;60.90;;;;;;5052642;28;20020;-60
2022/10/18 07:33:00;;;;;;;6.68;4.20;;;13.40;61.00;;;;;;5046798;28;20550;-61
2022/10/18 07:35:26;;;;;;;5.55;3.92;;;13.50;60.90;;;;;;5040046;28;20391;-61
2022/10/18 07:37:53;;;;;;;5.40;3.80;;;13.50;60.90;;;;;;5050436;28;20029;-60
2022/10/18 07:40:18;;;;;;;5.20;3.88;;;13.60;61.60;;;;;;5043847;28;20024;-60
2022/10/18 07:42:45;;;;;;;5.43;4.22;;;13.60;60.90;;;;;;5050402;28;20063;-59
2022/10/18 07:45:12;;;;;;;5.88;4.32;;;13.60;60.80;;;;;;5059251;28;20036;-60
2022/10/18 07:47:39;;;;;;;5.45;3.80;;;13.70;60.90;;;;;;5047127;28;20108;-60
2022/10/18 07:50:05;;;;;;;6.65;4.43;;;13.80;61.10;;;;;;5041955;28;20036;-61
2022/10/18 07:52:31;;;;;;;6.45;4.15;;;13.80;60.80;;;;;;5044164;28;23391;-60
2022/10/18 07:54:56;;;;;;;7.95;4.93;;;13.90;60.70;;;;;;5044553;28;20037;-61
2022/10/18 07:57:22;;;;;;;5.93;3.97;;;13.90;60.70;;;;;;5044374;28;20097;-61
2022/10/18 07:59:54;;;;;;;6.32;4.30;;;14.00;60.70;;;;;;5039310;28;20049;-61
2022/10/18 08:02:20;;;;;;;5.25;3.78;;;14.00;60.80;;;;;;5044981;28;20036;-61
2022/10/18 08:04:46;;;;;;;5.88;4.38;;;14.00;60.60;;;;;;5049390;28;20466;-60
2022/10/18 08:07:12;;;;;;;4.57;3.40;;;14.10;60.50;;;;;;5046290;28;20822;-61
2022/10/18 08:09:38;;;;;;;4.93;3.58;;;14.10;60.40;;;;;;5050569;28;20047;-60
2022/10/18 08:12:03;;;;;;;4.95;3.30;;;14.20;60.50;;;;;;5047433;28;20790;-60
2022/10/18 08:14:29;;;;;;;4.00;3.03;;;14.20;60.50;;;;;;5048897;28;20036;-61
2022/10/18 08:16:55;;;;;;;4.40;3.47;;;14.30;61.00;;;;;;5043752;28;20123;-60
2022/10/18 08:19:20;;;;;;;5.85;3.03;;;14.30;60.30;;;;;;5041509;28;20085;-60
2022/10/18 08:21:46;;;;;;;4.45;3.28;;;14.30;61.00;;;;;;5045163;28;20480;-60
2022/10/18 08:24:12;;;;;;;4.50;3.15;;;14.40;60.20;;;;;;5041931;28;20117;-61
2022/10/18 08:26:37;;;;;;;4.68;3.20;;;14.50;61.00;;;;;;5044632;28;20021;-61
2022/10/18 08:29:03;;;;;;;5.15;3.70;;;14.50;60.10;;;;;;5050398;28;20032;-61
2022/10/18 08:31:29;;;;;;;5.05;3.40;;;14.50;60.10;;;;;;5047815;28;20033;-60
2022/10/18 08:33:58;;;;;;;4.53;3.00;;;14.60;60.00;;;;;;5046266;28;20032;-60
2022/10/18 08:36:24;;;;;;;4.00;2.95;;;14.60;59.90;;;;;;5044019;28;21257;-60
2022/10/18 08:38:50;;;;;;;7.32;3.47;;;14.70;59.80;;;;;;5044982;28;20038;-60
2022/10/18 08:41:37;;;;;;;3.78;3.13;;;14.70;59.80;;;;;;5035839;28;21367;-60
2022/10/18 08:44:17;;;;;;;4.22;2.92;;;14.80;59.60;;;;;;5037386;28;20028;-61
2022/10/18 08:46:49;;;;;;;3.33;2.80;;;14.80;59.60;;;;;;5037855;28;21413;-60
2022/10/18 08:49:33;;;;;;;4.72;3.10;;;14.80;59.50;;;;;;5043511;28;20468;-60
2022/10/18 08:51:59;;;;;;;4.28;3.22;;;14.90;59.40;;;;;;5045033;28;20135;-60
2022/10/18 08:54:48;;;;;;;6.32;4.10;;;14.90;59.40;;;;;;5041507;28;21046;-60
2022/10/18 08:57:16;;;;;;;5.03;3.40;;;15.00;59.20;;;;;;5050753;28;20021;-60
2022/10/18 08:59:43;;;;;;;3.28;2.70;;;15.00;59.00;;;;;;5031208;28;21500;-59
2022/10/18 09:02:40;;;;;;;3.55;2.72;;;15.00;59.00;;;;;;5035727;28;20024;-61
2022/10/18 09:05:18;;;;;;;3.72;2.80;;;15.10;59.00;;;;;;5041256;28;20687;-60
2022/10/18 09:08:12;;;;;;;3.50;2.78;;;15.20;58.90;;;;;;5042637;28;21099;-60
2022/10/18 09:10:55;;;;;;;3.17;2.85;;;15.30;58.70;;;;;;5050526;28;20408;-59
2022/10/18 09:13:39;;;;;;;3.50;2.72;;;15.30;58.60;;;;;;5044911;28;20036;-59
2022/10/18 09:16:15;;;;;;;2.60;2.40;;;15.30;58.40;;;;;;5045092;28;20032;-60
2022/10/18 09:19:01;;;;;;;3.47;2.83;;;15.40;58.90;;;;;;5051576;28;20153;-61
2022/10/18 09:21:43;;;;;;;2.70;2.30;;;15.40;58.20;;;;;;5050494;28;20145;-60
2022/10/18 09:24:17;;;;;;;2.63;2.25;;;15.50;58.20;;;;;;5050695;28;20020;-61
2022/10/18 09:26:48;;;;;;;4.63;2.60;;;15.50;58.00;;;;;;5049625;28;20016;-61
2022/10/18 09:29:32;;;;;;;3.65;2.40;;;15.50;58.00;;;;;;5040692;28;20037;-61
2022/10/18 09:32:21;;;;;;;3.15;2.70;;;15.60;57.80;;;;;;5048022;28;20137;-61
2022/10/18 09:34:57;;;;;;;3.03;2.47;;;15.60;57.60;;;;;;5037844;28;20105;-61
2022/10/18 09:37:26;;;;;;;2.80;2.50;;;15.70;57.40;;;;;;5033498;28;20036;-61
2022/10/18 09:40:02;;;;;;;4.18;2.78;;;15.70;57.20;;;;;;5043840;28;20031;-60
2022/10/18 09:42:36;;;;;;;2.97;2.25;;;15.80;57.00;;;;;;5043677;28;20029;-61
2022/10/18 09:45:39;;;;;;;2.83;2.50;;;15.80;56.80;;;;;;5044010;28;20029;-61
2022/10/18 09:48:36;;;;;;;3.33;2.55;;;15.90;56.60;;;;;;5043401;28;20024;-60
2022/10/18 09:51:22;;;;;;;3.22;2.67;;;16.00;56.60;;;;;;5038654;28;20038;-61
2022/10/18 09:54:18;;;;;;;3.22;2.63;;;16.00;56.20;;;;;;5053772;28;20028;-60
2022/10/18 09:56:55;;;;;;;2.30;2.10;;;16.00;56.10;;;;;;5042701;28;20055;-61
2022/10/18 09:59:24;;;;;;;2.40;2.20;;;16.10;56.00;;;;;;5057701;28;20131;-62
2022/10/18 10:01:49;;;;;;;3.65;2.70;;;16.10;55.80;;;;;;5048076;28;20036;-60
2022/10/18 10:04:15;;;;;;;2.75;2.40;;;16.10;55.70;;;;;;5043161;28;20709;-60
2022/10/18 10:06:52;;;;;;;3.42;2.30;;;16.20;55.60;;;;;;5046618;28;20406;-61
2022/10/18 10:09:35;;;;;;;3.70;2.30;;;16.20;55.50;;;;;;5048594;28;20399;-61
2022/10/18 10:12:01;;;;;;;4.15;2.58;;;16.20;55.20;;;;;;5047906;28;20032;-62
2022/10/18 10:14:29;;;;;;;2.63;2.10;;;16.30;55.10;;;;;;5048991;28;20446;-60
2022/10/18 10:17:19;;;;;;;2.00;1.90;;;16.30;54.90;;;;;;5054961;28;20043;-61
2022/10/18 10:19:56;;;;;;;3.17;2.00;;;16.40;54.80;;;;;;5063834;28;20033;-59
2022/10/18 10:22:35;;;;;;;2.30;2.05;;;16.40;54.60;;;;;;5055018;28;20024;-61
2022/10/18 10:25:02;;;;;;;3.50;2.28;;;16.40;54.50;;;;;;5059517;28;20056;-61
2022/10/18 10:27:44;;;;;;;3.28;2.47;;;16.40;54.30;;;;;;5064803;28;20411;-61
2022/10/18 10:30:23;;;;;;;2.88;2.00;;;16.50;54.10;;;;;;5063916;28;20047;-60
2022/10/18 10:32:51;;;;;;;2.28;1.85;;;16.60;54.00;;;;;;5070318;28;20032;-60
2022/10/18 10:35:34;;;;;;;2.40;1.83;;;16.60;53.80;;;;;;5063285;28;20035;-60
2022/10/18 10:38:00;;;;;;;3.28;1.73;;;16.60;53.60;;;;;;5056860;28;20031;-61
2022/10/18 10:40:27;;;;;;;1.98;1.67;;;16.60;53.50;;;;;;5059888;28;20024;-61
2022/10/18 10:43:08;;;;;;;3.15;2.20;;;16.70;53.60;;;;;;5061575;28;20027;-60
2022/10/18 10:45:59;;;;;;;2.00;1.85;;;16.70;53.10;;;;;;5059026;28;20027;-60
2022/10/18 10:48:27;;;;;;;2.05;1.80;;;16.80;53.10;;;;;;5050134;28;20135;-60
2022/10/18 10:51:03;;;;;;;2.95;1.90;;;16.80;53.00;;;;;;5058663;28;20033;-60
2022/10/18 10:53:42;;;;;;;3.10;1.98;;;16.80;52.90;;;;;;5053951;28;20033;-61
2022/10/18 10:56:21;;;;;;;2.15;2.00;;;16.90;52.80;;;;;;5056707;28;20119;-60
2022/10/18 10:58:47;;;;;;;2.42;2.08;;;16.90;52.70;;;;;;5043538;28;20117;-60
2022/10/18 11:01:28;;;;;;;3.55;2.10;;;16.90;52.70;;;;;;5047462;28;20024;-60
2022/10/18 11:03:55;;;;;;;;;;;16.90;52.30;;;;;;5058141;28;20027;-60
2022/10/18 11:06:49;;;;;;;1.60;1.50;;;16.90;51.90;;;;;;5046920;28;20663;-61
2022/10/18 11:09:46;;;;;;;1.55;1.45;;;16.90;52.40;;;;;;5042802;28;20032;-62
2022/10/18 11:12:23;;;;;;;1.80;1.50;;;17.00;52.30;;;;;;5048771;28;20036;-60
2022/10/18 11:15:01;;;;;;;1.67;1.58;;;17.00;52.30;;;;;;5046754;28;20036;-61
2022/10/18 11:17:34;;;;;;;1.95;1.48;;;17.00;52.10;;;;;;5049192;28;20036;-60
2022/10/18 11:20:06;;;;;;;2.13;1.60;;;17.00;52.00;;;;;;5049552;28;20037;-61
2022/10/18 11:22:42;;;;;;;1.90;1.67;;;17.00;51.80;;;;;;5047365;28;20039;-61
2022/10/18 11:25:14;;;;;;;1.77;1.48;;;17.00;51.80;;;;;;5053696;28;21808;-60
2022/10/18 11:27:52;;;;;;;1.75;1.65;;;17.00;51.70;;;;;;5050897;28;20032;-60
2022/10/18 11:30:39;;;;;;;1.77;1.58;;;17.00;51.50;;;;;;5053687;28;20430;-61
2022/10/18 11:33:26;;;;;;;1.55;1.45;;;17.00;51.40;;;;;;5046379;28;20060;-61
2022/10/18 11:36:12;;;;;;;2.45;1.70;;;17.10;51.30;;;;;;5056590;28;20036;-62
2022/10/18 11:39:13;;;;;;;2.30;2.10;;;17.10;51.20;;;;;;5054742;28;20020;-61
2022/10/18 11:41:59;;;;;;;1.50;1.40;;;17.10;50.90;;;;;;5046855;28;20021;-61
2022/10/18 11:44:31;;;;;;;1.67;1.50;;;17.10;50.90;;;;;;5036803;28;20118;-59
2022/10/18 11:46:56;;;;;;;2.75;2.20;;;17.10;50.90;;;;;;5044206;28;20029;-61
2022/10/18 11:49:25;;;;;;;1.50;1.40;;;17.10;50.70;;;;;;5054420;28;20031;-61
2022/10/18 11:52:43;;;;;;;1.60;1.50;;;17.10;50.60;;;;;;5055361;28;20054;-62
2022/10/18 11:55:18;;;;;;;2.80;1.65;;;17.20;50.40;;;;;;5048809;28;20058;-61
2022/10/18 11:58:37;;;;;;;1.70;1.52;;;17.20;50.60;;;;;;5058986;28;20548;-61
2022/10/18 12:01:33;;;;;;;1.50;1.40;;;17.20;50.30;;;;;;5037807;28;20081;-60
2022/10/18 12:04:17;;;;;;;2.60;1.95;;;17.20;50.40;;;;;;5057239;28;20155;-61
2022/10/18 12:06:50;;;;;;;3.15;2.13;;;17.20;50.40;;;;;;5048154;28;20028;-61
2022/10/18 12:09:28;;;;;;;2.85;2.20;;;17.20;50.00;;;;;;5055858;28;20048;-62
2022/10/18 12:12:13;;;;;;;2.45;2.00;;;17.20;50.00;;;;;;5046714;28;20425;-60
2022/10/18 12:14:48;;;;;;;1.90;1.80;;;17.20;49.80;;;;;;5046925;28;20045;-61
2022/10/18 12:17:27;;;;;;;1.85;1.75;;;17.20;49.70;;;;;;5053825;28;20072;-62
2022/10/18 12:20:01;;;;;;;2.72;2.00;;;17.30;49.90;;;;;;5052485;28;20028;-60
2022/10/18 12:22:39;;;;;;;2.25;2.00;;;17.20;49.50;;;;;;5051617;28;20033;-62
2022/10/18 12:25:11;;;;;;;2.15;1.92;;;17.30;49.70;;;;;;5060796;28;20032;-60
2022/10/18 12:27:47;;;;;;;2.03;1.75;;;17.30;49.70;;;;;;5059616;28;20495;-60
2022/10/18 12:30:41;;;;;;;1.83;1.60;;;17.30;49.60;;;;;;5051209;28;20032;-61
2022/10/18 12:33:20;;;;;;;1.75;1.65;;;17.30;49.50;;;;;;5047628;28;20037;-61
2022/10/18 12:36:32;;;;;;;1.88;1.75;;;17.30;49.70;;;;;;5042095;28;20541;-60
2022/10/18 12:39:03;;;;;;;2.00;1.75;;;17.30;49.50;;;;;;5055729;28;20031;-60
2022/10/18 12:41:33;;;;;;;2.58;2.00;;;17.30;49.70;;;;;;5049703;28;20120;-61
2022/10/18 12:44:03;;;;;;;2.08;1.88;;;17.30;49.70;;;;;;5051559;28;20074;-61
2022/10/18 12:46:48;;;;;;;2.78;2.10;;;17.30;49.80;;;;;;5047271;28;20024;-60
2022/10/18 12:49:20;;;;;;;2.42;1.90;;;17.30;49.70;;;;;;5051237;28;20487;-60
2022/10/18 12:51:58;;;;;;;2.53;1.70;;;17.30;49.80;;;;;;5055690;28;20394;-60
2022/10/18 12:54:33;;;;;;;2.45;2.10;;;17.30;49.70;;;;;;5057853;28;20032;-60
2022/10/18 12:57:01;;;;;;;2.92;2.20;;;17.30;49.70;;;;;;5055477;28;20020;-60
2022/10/18 12:59:26;;;;;;;2.08;1.77;;;17.30;49.70;;;;;;5057302;28;20051;-62
2022/10/18 13:01:52;;;;;;;1.90;1.60;;;17.30;49.70;;;;;;5051940;28;20037;-61
2022/10/18 13:04:27;;;;;;;2.10;1.90;;;17.30;49.80;;;;;;5055282;28;20027;-61
2022/10/18 13:07:17;;;;;;;2.13;1.90;;;17.40;49.70;;;;;;5065860;28;20028;-60
2022/10/18 13:10:08;;;;;;;3.35;1.95;;;17.40;49.70;;;;;;5061016;28;20037;-60